CZ-0031 weather

Hořín Heliport
Mělník, Central Bohemian Region, Czech Republic

Public forecast

Using degrees Celsius for public forecast. Weather courtesy of forecast.io.

Closest aviation weather report (METAR) to Hořín Heliport

Report is more than 6 hours old.

Closest report is Vodochody Airport, 7.8 nm (14.5 km) SSW. Retrieved 2019/11/11 14:00 UTC (15 hours ago):

LKVO 111400Z 08004KT 010V120 0900 FG OVC002 01/01 Q1011

Closest aviation forecast (TAF) to Hořín Heliport

Closest forecast is Kbely Air Base, 14.0 nm (25.9 km) SSE. Retrieved 2019-11-12 00:00 UTC (5 hours ago):

TAF LKKB 112300Z 1200/1300 07004KT 6000 BR BKN016 PROB40 TEMPO 1200/1206 3500 BR BKN008 BECMG 1206/1209 21006KT 3000 RA BR BKN006 PROB30 TEMPO 1209/1223 1200 RA BR OVC003